Time;durP1;ratioP1;P1;durP2;ratioP2;P2;SDS_P1;SDS_P2;PMS_P1;PMS_P2;Temp;Humidity;BMP_temperature;BMP_pressure;BME280_temperature;BME280_humidity;BME280_pressure;Samples;Min_cycle;Max_cycle;Signal;HPM_P1;HPM_P2
2022/01/24 00:01:44;;;;;;;12.82;10.52;;;;;;;;;;5094059;28;20171;-74
2022/01/24 00:04:11;;;;;;;12.57;10.65;;;;;;;;;;5093696;28;20167;-73
2022/01/24 00:06:37;;;;;;;14.38;11.00;;;;;;;;;;5093919;28;20197;-76
2022/01/24 00:09:04;;;;;;;12.40;11.10;;;;;;;;;;5093721;28;20163;-75
2022/01/24 00:12:20;;;;;;;14.93;11.98;;;;;;;;;;5093634;28;20171;-74
2022/01/24 00:28:11;;;;;;;12.98;11.15;;;;;;;;;;5093994;28;20170;-75
2022/01/24 00:30:37;;;;;;;16.10;11.80;;;;;;;;;;5092486;28;20175;-75
2022/01/24 00:33:03;;;;;;;16.08;11.43;;;;;;;;;;5095980;28;20417;-75
2022/01/24 00:35:29;;;;;;;15.70;12.05;;;;;;;;;;5100399;28;20175;-75
2022/01/24 00:38:01;;;;;;;16.30;11.00;;;;;;;;;;5099605;28;20210;-75
2022/01/24 00:40:28;;;;;;;12.18;10.98;;;;;;;;;;5100330;28;20405;-74
2022/01/24 00:42:58;;;;;;;12.43;10.38;;;;;;;;;;5096522;28;20175;-75
2022/01/24 00:53:18;;;;;;;17.05;12.85;;;;;;;;;;5097532;28;20236;-75
2022/01/24 00:55:45;;;;;;;16.23;13.15;;;;;;;;;;5097047;28;20216;-75
2022/01/24 00:58:11;;;;;;;17.83;13.18;;;;;;;;;;5097004;28;20167;-75
2022/01/24 01:00:38;;;;;;;17.52;13.38;;;;;;;;;;5097052;28;20171;-75
2022/01/24 01:03:09;;;;;;;23.13;15.65;;;;;;;;;;5097051;28;20174;-74
2022/01/24 01:05:59;;;;;;;16.38;12.73;;;;;;;;;;5097042;28;20201;-74
2022/01/24 01:19:06;;;;;;;11.88;10.10;;;;;;;;;;5096583;28;20283;-74
2022/01/24 01:21:32;;;;;;;13.55;10.52;;;;;;;;;;5096657;28;20250;-75
2022/01/24 01:23:59;;;;;;;12.40;10.45;;;;;;;;;;5096636;28;20626;-73
2022/01/24 01:26:35;;;;;;;10.93;9.80;;;;;;;;;;5096867;28;20167;-74
2022/01/24 01:29:17;;;;;;;13.35;11.20;;;;;;;;;;5096551;28;20178;-76
2022/01/24 01:40:21;;;;;;;12.65;11.00;;;;;;;;;;5096407;28;20488;-67
2022/01/24 01:55:55;;;;;;;12.88;11.40;;;;;;;;;;5095924;28;20177;-75
2022/01/24 01:58:22;;;;;;;15.73;12.00;;;;;;;;;;5095856;28;20175;-75
2022/01/24 02:00:50;;;;;;;15.07;11.40;;;;;;;;;;5095890;28;20447;-75
2022/01/24 02:03:17;;;;;;;12.35;11.05;;;;;;;;;;5095880;28;20171;-75
2022/01/24 02:05:43;;;;;;;15.93;13.02;;;;;;;;;;5095840;28;20670;-75
2022/01/24 02:08:09;;;;;;;13.38;11.63;;;;;;;;;;5095753;28;20199;-76
2022/01/24 02:10:37;;;;;;;14.30;11.57;;;;;;;;;;5095780;28;20198;-76
2022/01/24 02:13:04;;;;;;;14.85;11.60;;;;;;;;;;5095889;28;20409;-76
2022/01/24 02:15:43;;;;;;;15.80;11.75;;;;;;;;;;5095582;28;20702;-76
2022/01/24 02:18:25;;;;;;;16.90;12.20;;;;;;;;;;5095344;28;20273;-76
2022/01/24 02:26:00;;;;;;;14.23;10.85;;;;;;;;;;5095402;28;20190;-77
2022/01/24 02:28:44;;;;;;;13.80;11.77;;;;;;;;;;5095623;28;20182;-76
2022/01/24 02:31:54;;;;;;;18.20;12.55;;;;;;;;;;5095630;28;20159;-76
2022/01/24 02:33:59;;;;;;;15.13;11.95;;;;;;;;;;5089403;28;20194;-76
2022/01/24 02:36:25;;;;;;;16.50;12.25;;;;;;;;;;5095127;28;20221;-76
2022/01/24 02:49:29;;;;;;;17.77;12.55;;;;;;;;;;5095208;28;20160;-75
2022/01/24 02:52:08;;;;;;;14.50;11.53;;;;;;;;;;5094890;28;20171;-75
2022/01/24 02:54:35;;;;;;;13.82;10.75;;;;;;;;;;5094907;28;20485;-76
2022/01/24 02:57:02;;;;;;;15.05;11.38;;;;;;;;;;5094712;28;20210;-75
2022/01/24 02:59:28;;;;;;;14.63;11.45;;;;;;;;;;5095051;28;20171;-76
2022/01/24 03:01:54;;;;;;;17.20;12.10;;;;;;;;;;5094696;28;20170;-76
2022/01/24 03:04:20;;;;;;;12.40;10.40;;;;;;;;;;5094941;28;20254;-76
2022/01/24 03:06:46;;;;;;;12.00;10.30;;;;;;;;;;5094678;28;20630;-73
2022/01/24 03:09:12;;;;;;;13.17;10.50;;;;;;;;;;5094522;28;20425;-75
2022/01/24 03:14:24;;;;;;;14.23;11.02;;;;;;;;;;5094732;28;20630;-75
2022/01/24 03:16:50;;;;;;;11.30;10.13;;;;;;;;;;5094461;28;20577;-75
2022/01/24 03:19:16;;;;;;;14.30;11.20;;;;;;;;;;5094785;28;20321;-76
2022/01/24 03:21:43;;;;;;;12.68;10.80;;;;;;;;;;5094364;28;20500;-75
2022/01/24 03:24:09;;;;;;;17.30;11.43;;;;;;;;;;5094292;28;20178;-75
2022/01/24 03:26:35;;;;;;;13.52;10.88;;;;;;;;;;5094164;28;20171;-76
2022/01/24 03:29:01;;;;;;;12.50;11.20;;;;;;;;;;5092925;28;20202;-74
2022/01/24 03:31:27;;;;;;;14.57;11.80;;;;;;;;;;5094248;28;20421;-75
2022/01/24 03:33:53;;;;;;;11.80;10.60;;;;;;;;;;5094181;28;20417;-75
2022/01/24 03:36:19;;;;;;;15.70;11.48;;;;;;;;;;5093987;28;20281;-75
2022/01/24 03:38:45;;;;;;;13.23;11.13;;;;;;;;;;5094117;28;20194;-74
2022/01/24 03:41:11;;;;;;;17.52;11.70;;;;;;;;;;5093933;28;20397;-75
2022/01/24 03:43:37;;;;;;;15.80;11.57;;;;;;;;;;5093942;28;20177;-76
2022/01/24 03:46:25;;;;;;;12.10;10.10;;;;;;;;;;5092778;28;20257;-74
2022/01/24 03:48:54;;;;;;;16.42;12.27;;;;;;;;;;5094156;28;20411;-73
2022/01/24 03:51:20;;;;;;;12.05;10.73;;;;;;;;;;5094090;28;20194;-75
2022/01/24 03:53:47;;;;;;;12.45;11.15;;;;;;;;;;5093815;28;20167;-75
2022/01/24 03:56:13;;;;;;;19.70;11.85;;;;;;;;;;5093969;28;20222;-75
2022/01/24 03:58:39;;;;;;;12.48;10.27;;;;;;;;;;5092550;28;20254;-75
2022/01/24 04:01:07;;;;;;;11.63;10.43;;;;;;;;;;5093974;28;20174;-73
2022/01/24 04:03:34;;;;;;;13.35;11.13;;;;;;;;;;5093685;28;20171;-75
2022/01/24 04:06:00;;;;;;;15.52;12.00;;;;;;;;;;5093684;28;20512;-75
2022/01/24 04:08:26;;;;;;;15.43;11.20;;;;;;;;;;5093784;28;20170;-71
2022/01/24 04:10:55;;;;;;;14.03;10.40;;;;;;;;;;5093626;28;20413;-75
2022/01/24 04:13:33;;;;;;;13.95;11.60;;;;;;;;;;5092426;28;20417;-75
2022/01/24 04:18:42;;;;;;;12.75;10.60;;;;;;;;;;5093912;28;20258;-74
2022/01/24 04:21:28;;;;;;;16.92;11.85;;;;;;;;;;5093904;28;20167;-73
2022/01/24 04:24:05;;;;;;;16.45;11.75;;;;;;;;;;5098167;28;20163;-75
2022/01/24 04:26:32;;;;;;;14.77;10.85;;;;;;;;;;5097771;28;20166;-75
2022/01/24 04:28:59;;;;;;;14.68;11.60;;;;;;;;;;5097812;28;20178;-68
2022/01/24 04:31:25;;;;;;;11.77;9.75;;;;;;;;;;5097875;28;20224;-69
2022/01/24 04:33:51;;;;;;;11.73;10.48;;;;;;;;;;5097564;28;20177;-68
2022/01/24 04:36:18;;;;;;;12.20;10.68;;;;;;;;;;5097543;28;20284;-69
2022/01/24 04:38:44;;;;;;;10.80;9.73;;;;;;;;;;5097521;28;20627;-69
2022/01/24 04:41:23;;;;;;;11.95;10.32;;;;;;;;;;5097672;28;20178;-74
2022/01/24 04:56:37;;;;;;;22.23;13.07;;;;;;;;;;5097357;28;20234;-76
2022/01/24 04:59:03;;;;;;;15.98;10.77;;;;;;;;;;5097079;28;20408;-76
2022/01/24 05:01:29;;;;;;;13.43;10.63;;;;;;;;;;5097025;28;20163;-76
2022/01/24 05:03:55;;;;;;;11.43;10.03;;;;;;;;;;5096897;28;20240;-76
2022/01/24 05:06:21;;;;;;;11.57;10.02;;;;;;;;;;5096983;28;20416;-76
2022/01/24 05:08:47;;;;;;;13.77;11.20;;;;;;;;;;5096849;28;20179;-76
2022/01/24 05:11:18;;;;;;;12.80;10.00;;;;;;;;;;5096821;28;20515;-75
2022/01/24 05:24:30;;;;;;;16.08;10.98;;;;;;;;;;5096545;28;20166;-76
2022/01/24 05:26:56;;;;;;;13.25;11.30;;;;;;;;;;5096563;28;20167;-75
2022/01/24 05:29:22;;;;;;;15.18;11.13;;;;;;;;;;5096679;28;20171;-76
2022/01/24 05:31:48;;;;;;;16.63;10.97;;;;;;;;;;5096459;28;20324;-75
2022/01/24 05:34:14;;;;;;;18.50;13.10;;;;;;;;;;5095971;28;20404;-76
2022/01/24 05:36:40;;;;;;;18.65;14.23;;;;;;;;;;5096239;28;20465;-75
2022/01/24 05:39:06;;;;;;;17.43;12.57;;;;;;;;;;5096375;28;20539;-75
2022/01/24 05:41:34;;;;;;;16.90;13.13;;;;;;;;;;5096134;28;20414;-75
2022/01/24 05:44:00;;;;;;;20.08;12.82;;;;;;;;;;5096164;28;20645;-75
2022/01/24 05:46:26;;;;;;;19.77;12.20;;;;;;;;;;5096235;28;20172;-75
2022/01/24 05:48:52;;;;;;;18.47;12.53;;;;;;;;;;5096083;28;20397;-76
2022/01/24 05:51:20;;;;;;;17.73;12.50;;;;;;;;;;5096344;28;20401;-75
2022/01/24 05:53:46;;;;;;;19.98;12.45;;;;;;;;;;5096271;28;20179;-75
2022/01/24 05:56:12;;;;;;;17.10;12.55;;;;;;;;;;5095983;28;20605;-76
2022/01/24 05:58:38;;;;;;;18.40;12.32;;;;;;;;;;5096026;28;20187;-77
2022/01/24 06:01:04;;;;;;;15.65;11.45;;;;;;;;;;5095893;28;20164;-77
2022/01/24 06:03:30;;;;;;;16.35;12.35;;;;;;;;;;5095988;28;20159;-75
2022/01/24 06:05:56;;;;;;;15.18;11.98;;;;;;;;;;5096039;28;20679;-75
2022/01/24 06:08:22;;;;;;;19.40;13.50;;;;;;;;;;5095875;28;20175;-74
2022/01/24 06:10:48;;;;;;;16.00;12.52;;;;;;;;;;5095733;28;20402;-76
2022/01/24 06:13:15;;;;;;;14.80;12.13;;;;;;;;;;5095915;28;20174;-77
2022/01/24 06:15:42;;;;;;;15.32;12.30;;;;;;;;;;5095567;28;20687;-80
2022/01/24 06:18:08;;;;;;;16.40;13.73;;;;;;;;;;5094961;28;20459;-77
2022/01/24 06:20:36;;;;;;;17.20;12.43;;;;;;;;;;5095558;28;20163;-77
2022/01/24 06:23:02;;;;;;;20.30;13.90;;;;;;;;;;5095332;28;20171;-73
2022/01/24 06:25:29;;;;;;;30.15;16.70;;;;;;;;;;5095024;28;20419;-76
2022/01/24 06:27:55;;;;;;;22.58;15.40;;;;;;;;;;5094138;28;20182;-75
2022/01/24 06:30:21;;;;;;;25.38;16.30;;;;;;;;;;5095285;28;20178;-77
2022/01/24 06:32:47;;;;;;;36.67;16.17;;;;;;;;;;5095304;28;20166;-74
2022/01/24 06:35:14;;;;;;;25.77;15.10;;;;;;;;;;5095320;28;20463;-75
2022/01/24 06:37:41;;;;;;;67.18;28.25;;;;;;;;;;5095171;28;20294;-76
2022/01/24 06:40:07;;;;;;;58.03;24.25;;;;;;;;;;5095083;28;20194;-76
2022/01/24 06:42:33;;;;;;;60.42;25.95;;;;;;;;;;5095082;28;20174;-75
2022/01/24 06:44:59;;;;;;;47.40;23.30;;;;;;;;;;5094072;28;20532;-73
2022/01/24 06:47:25;;;;;;;35.63;19.70;;;;;;;;;;5095116;28;20174;-72
2022/01/24 06:49:52;;;;;;;46.67;22.47;;;;;;;;;;5094976;28;20174;-76
2022/01/24 06:52:20;;;;;;;47.47;22.35;;;;;;;;;;5094949;28;20888;-76
2022/01/24 06:54:46;;;;;;;54.50;28.60;;;;;;;;;;5095061;28;20672;-78
2022/01/24 06:57:13;;;;;;;45.78;21.63;;;;;;;;;;5094650;28;20285;-76
2022/01/24 06:59:39;;;;;;;36.90;19.83;;;;;;;;;;5094738;28;20163;-77
2022/01/24 07:02:05;;;;;;;42.35;18.38;;;;;;;;;;5094653;28;20228;-76
2022/01/24 07:04:31;;;;;;;36.72;18.33;;;;;;;;;;5093382;28;20179;-76
2022/01/24 07:06:57;;;;;;;39.72;19.33;;;;;;;;;;5094954;28;20236;-76
2022/01/24 07:09:23;;;;;;;37.42;18.80;;;;;;;;;;5094659;28;20167;-77
2022/01/24 07:11:51;;;;;;;34.67;18.13;;;;;;;;;;5094561;28;20170;-75
2022/01/24 07:14:17;;;;;;;37.25;18.40;;;;;;;;;;5094483;28;20389;-75
2022/01/24 07:19:26;;;;;;;28.10;16.40;;;;;;;;;;5094234;28;20256;-71
2022/01/24 07:21:53;;;;;;;36.15;16.88;;;;;;;;;;5094394;28;20607;-70
2022/01/24 07:24:19;;;;;;;44.88;18.02;;;;;;;;;;5094390;28;20199;-70
2022/01/24 07:26:45;;;;;;;43.93;19.70;;;;;;;;;;5092970;28;20227;-70
2022/01/24 07:29:11;;;;;;;39.00;20.17;;;;;;;;;;5094188;28;20963;-70
2022/01/24 07:31:37;;;;;;;37.33;20.20;;;;;;;;;;5094343;28;20417;-70
2022/01/24 07:34:03;;;;;;;32.00;17.80;;;;;;;;;;5094236;28;20539;-68
2022/01/24 07:36:29;;;;;;;25.63;15.65;;;;;;;;;;5094453;28;20577;-69
2022/01/24 07:38:55;;;;;;;18.77;13.50;;;;;;;;;;5094399;28;20174;-69
2022/01/24 07:41:27;;;;;;;21.60;14.30;;;;;;;;;;5092854;28;20181;-69
2022/01/24 07:43:54;;;;;;;20.98;14.05;;;;;;;;;;5094100;28;20167;-69
2022/01/24 07:46:20;;;;;;;19.08;13.02;;;;;;;;;;5093913;28;20171;-67
2022/01/24 07:48:46;;;;;;;16.35;12.05;;;;;;;;;;5094305;28;20164;-69
2022/01/24 07:51:12;;;;;;;16.42;12.63;;;;;;;;;;5092923;28;20171;-65
2022/01/24 07:53:38;;;;;;;17.73;11.75;;;;;;;;;;5093977;28;20163;-65
2022/01/24 07:56:05;;;;;;;16.65;12.75;;;;;;;;;;5093589;28;20680;-66
2022/01/24 07:58:31;;;;;;;15.90;11.98;;;;;;;;;;5093747;28;20212;-63
2022/01/24 08:00:57;;;;;;;23.38;14.43;;;;;;;;;;5093824;28;20238;-66
2022/01/24 08:03:23;;;;;;;15.43;12.77;;;;;;;;;;5093725;28;20171;-66
2022/01/24 08:05:49;;;;;;;16.60;13.27;;;;;;;;;;5093751;28;20167;-65
2022/01/24 08:08:15;;;;;;;14.80;12.02;;;;;;;;;;5093648;28;20182;-70
2022/01/24 08:10:41;;;;;;;19.25;14.30;;;;;;;;;;5093642;28;20583;-68
2022/01/24 08:13:07;;;;;;;20.30;12.40;;;;;;;;;;5093789;28;20199;-65
2022/01/24 08:15:33;;;;;;;12.27;10.48;;;;;;;;;;5093389;28;20409;-65
2022/01/24 08:17:59;;;;;;;14.63;11.32;;;;;;;;;;5093169;28;20284;-65
2022/01/24 08:20:26;;;;;;;16.38;12.15;;;;;;;;;;5093457;28;20232;-65
2022/01/24 08:22:52;;;;;;;22.73;14.48;;;;;;;;;;5093540;28;20212;-65
2022/01/24 08:25:19;;;;;;;14.13;11.97;;;;;;;;;;5093751;28;20175;-65
2022/01/24 08:27:46;;;;;;;12.38;11.13;;;;;;;;;;5093475;28;20480;-65
2022/01/24 08:30:17;;;;;;;22.10;16.60;;;;;;;;;;5093687;28;20167;-66
2022/01/24 08:32:43;;;;;;;14.38;12.07;;;;;;;;;;5093669;28;20167;-65
2022/01/24 08:35:09;;;;;;;16.70;11.98;;;;;;;;;;5093676;28;20513;-65
2022/01/24 08:37:36;;;;;;;17.50;10.80;;;;;;;;;;5093274;28;20207;-66
2022/01/24 08:40:02;;;;;;;16.55;12.07;;;;;;;;;;5093370;28;20266;-66
2022/01/24 08:47:30;;;;;;;13.85;11.02;;;;;;;;;;5093340;28;20258;-66
2022/01/24 08:49:58;;;;;;;15.30;11.80;;;;;;;;;;5093539;28;20179;-66
2022/01/24 08:52:24;;;;;;;16.48;12.02;;;;;;;;;;5093517;28;20167;-66
2022/01/24 08:54:50;;;;;;;20.45;11.73;;;;;;;;;;5093263;28;20167;-66
2022/01/24 08:57:21;;;;;;;12.20;10.73;;;;;;;;;;5093362;28;20206;-63
2022/01/24 08:59:48;;;;;;;18.45;13.38;;;;;;;;;;5093085;28;20164;-63
2022/01/24 09:02:14;;;;;;;13.10;11.65;;;;;;;;;;5093066;28;20163;-65
2022/01/24 09:04:40;;;;;;;16.23;11.77;;;;;;;;;;5093058;28;20228;-65
2022/01/24 09:07:06;;;;;;;15.20;11.23;;;;;;;;;;5093001;28;20405;-65
2022/01/24 09:09:34;;;;;;;18.48;13.30;;;;;;;;;;5095204;28;20982;-65
2022/01/24 09:12:01;;;;;;;16.55;13.40;;;;;;;;;;5097013;28;20197;-65
2022/01/24 09:14:27;;;;;;;13.98;12.52;;;;;;;;;;5097024;28;20163;-65
2022/01/24 09:16:53;;;;;;;19.50;13.40;;;;;;;;;;5096702;28;20676;-65
2022/01/24 09:19:19;;;;;;;14.23;12.77;;;;;;;;;;5096584;28;20456;-66
2022/01/24 09:21:45;;;;;;;18.03;13.90;;;;;;;;;;5096657;28;20417;-66
2022/01/24 09:24:11;;;;;;;20.77;15.73;;;;;;;;;;5096661;28;20500;-66
2022/01/24 09:26:37;;;;;;;50.17;36.97;;;;;;;;;;5096702;28;20439;-66
2022/01/24 09:29:03;;;;;;;14.43;12.90;;;;;;;;;;5096600;28;20945;-66
2022/01/24 09:31:30;;;;;;;14.53;13.03;;;;;;;;;;5096377;28;20393;-66
2022/01/24 09:33:56;;;;;;;15.30;13.70;;;;;;;;;;5096442;28;20409;-66
2022/01/24 09:36:23;;;;;;;15.83;13.33;;;;;;;;;;5096201;28;20467;-66
2022/01/24 09:38:49;;;;;;;14.50;13.10;;;;;;;;;;5096307;28;20504;-65
2022/01/24 09:41:16;;;;;;;15.17;13.77;;;;;;;;;;5096332;28;20450;-65
2022/01/24 09:43:43;;;;;;;22.20;14.73;;;;;;;;;;5096518;28;20420;-66
2022/01/24 09:46:10;;;;;;;16.17;14.47;;;;;;;;;;5096447;28;20394;-66
2022/01/24 09:48:38;;;;;;;18.20;15.00;;;;;;;;;;5096251;28;20466;-67
2022/01/24 09:51:04;;;;;;;13.93;12.50;;;;;;;;;;5094872;28;20413;-67
2022/01/24 09:53:30;;;;;;;14.90;13.47;;;;;;;;;;5096094;28;20462;-67
2022/01/24 09:55:59;;;;;;;15.97;14.37;;;;;;;;;;5095982;28;20401;-66
2022/01/24 09:58:25;;;;;;;14.90;13.50;;;;;;;;;;5095848;28;20453;-66
2022/01/24 10:00:51;;;;;;;13.87;12.57;;;;;;;;;;5095918;28;20413;-66
2022/01/24 10:03:17;;;;;;;13.93;12.60;;;;;;;;;;5095926;28;20425;-66
2022/01/24 10:05:51;;;;;;;14.67;13.00;;;;;;;;;;5095800;28;20405;-67
2022/01/24 10:08:17;;;;;;;13.57;12.40;;;;;;;;;;5096113;28;20425;-66
2022/01/24 10:10:54;;;;;;;13.00;11.90;;;;;;;;;;5094436;28;20421;-66
2022/01/24 10:16:29;;;;;;;12.80;11.70;;;;;;;;;;5095840;28;20422;-67
2022/01/24 10:18:58;;;;;;;12.97;11.83;;;;;;;;;;5095496;28;20472;-66
2022/01/24 10:21:24;;;;;;;12.63;11.60;;;;;;;;;;5095529;28;20419;-67
2022/01/24 10:23:50;;;;;;;12.83;11.73;;;;;;;;;;5095520;28;20506;-66
2022/01/24 10:26:16;;;;;;;13.27;12.07;;;;;;;;;;5095473;28;20461;-67
2022/01/24 10:28:43;;;;;;;11.03;10.30;;;;;;;;;;5095348;28;20867;-67
2022/01/24 10:31:09;;;;;;;11.70;10.70;;;;;;;;;;5095566;28;20409;-67
2022/01/24 10:33:51;;;;;;;12.37;11.27;;;;;;;;;;5095593;28;20402;-66
2022/01/24 10:36:46;;;;;;;12.93;11.83;;;;;;;;;;5095213;28;20394;-66
2022/01/24 10:39:15;;;;;;;13.50;12.30;;;;;;;;;;5082440;28;20773;-67
2022/01/24 10:41:56;;;;;;;12.80;11.60;;;;;;;;;;5095097;28;20401;-66
2022/01/24 10:44:33;;;;;;;13.00;12.00;;;;;;;;;;5095062;28;20953;-66
2022/01/24 10:47:16;;;;;;;13.80;10.60;;;;;;;;;;5095014;28;20413;-66
2022/01/24 10:49:42;;;;;;;12.20;11.20;;;;;;;;;;5094965;28;20407;-67
2022/01/24 10:52:10;;;;;;;12.63;11.60;;;;;;;;;;5095228;28;20521;-66
2022/01/24 10:54:36;;;;;;;12.13;11.10;;;;;;;;;;5094944;28;20412;-66
2022/01/24 10:57:02;;;;;;;12.63;11.53;;;;;;;;;;5094792;28;20585;-67
2022/01/24 10:59:28;;;;;;;13.37;12.07;;;;;;;;;;5094897;28;20916;-67
2022/01/24 11:01:55;;;;;;;12.77;11.47;;;;;;;;;;5094876;28;20402;-66
2022/01/24 11:04:23;;;;;;;11.57;10.77;;;;;;;;;;5094733;28;20397;-67
2022/01/24 11:06:50;;;;;;;10.63;9.83;;;;;;;;;;5094615;28;20483;-67
2022/01/24 11:09:24;;;;;;;11.17;10.23;;;;;;;;;;5093375;28;20420;-67
2022/01/24 11:11:51;;;;;;;11.10;10.17;;;;;;;;;;5094601;28;20496;-66
2022/01/24 11:14:19;;;;;;;11.30;10.40;;;;;;;;;;5094631;28;20410;-67
2022/01/24 11:16:46;;;;;;;10.70;10.00;;;;;;;;;;5094695;28;20553;-66
2022/01/24 11:19:21;;;;;;;12.23;11.13;;;;;;;;;;5094183;28;20486;-67
2022/01/24 11:21:47;;;;;;;12.03;11.13;;;;;;;;;;5094520;28;20398;-66
2022/01/24 11:24:18;;;;;;;10.80;9.97;;;;;;;;;;5094419;28;20555;-67
2022/01/24 11:26:45;;;;;;;11.93;11.03;;;;;;;;;;5094326;28;20449;-66
2022/01/24 11:29:11;;;;;;;11.30;10.30;;;;;;;;;;5094202;28;20497;-66
2022/01/24 11:31:43;;;;;;;12.53;11.43;;;;;;;;;;5093598;28;20407;-67
2022/01/24 11:34:15;;;;;;;11.83;10.80;;;;;;;;;;5094178;28;20408;-66
2022/01/24 11:36:42;;;;;;;11.50;10.60;;;;;;;;;;5094284;28;20475;-66
2022/01/24 11:39:08;;;;;;;12.60;11.50;;;;;;;;;;5094144;28;21053;-66
2022/01/24 11:41:37;;;;;;;13.70;11.83;;;;;;;;;;5094091;28;20401;-65
2022/01/24 11:44:13;;;;;;;14.33;11.50;;;;;;;;;;5093945;28;20443;-65
2022/01/24 11:46:48;;;;;;;14.67;13.27;;;;;;;;;;5094236;28;20746;-65
2022/01/24 11:49:23;;;;;;;12.73;11.43;;;;;;;;;;5094160;28;20722;-65
2022/01/24 11:51:50;;;;;;;14.43;13.13;;;;;;;;;;5093886;28;20405;-65
2022/01/24 11:54:43;;;;;;;13.17;11.80;;;;;;;;;;5093916;28;20872;-66
2022/01/24 11:57:16;;;;;;;12.20;10.97;;;;;;;;;;5093830;28;20456;-65
2022/01/24 11:59:42;;;;;;;12.30;11.20;;;;;;;;;;5093800;28;20413;-65
2022/01/24 12:02:11;;;;;;;13.93;12.50;;;;;;;;;;5093711;28;20416;-65
2022/01/24 12:04:56;;;;;;;13.83;12.17;;;;;;;;;;5092483;28;20422;-66
2022/01/24 12:07:23;;;;;;;14.00;12.70;;;;;;;;;;5093690;28;20419;-66
2022/01/24 12:09:51;;;;;;;12.73;11.70;;;;;;;;;;5093894;28;20416;-66
2022/01/24 12:12:35;;;;;;;13.27;11.73;;;;;;;;;;5093506;28;20423;-66
2022/01/24 12:15:02;;;;;;;13.17;11.83;;;;;;;;;;5093618;28;20429;-66
2022/01/24 12:17:47;;;;;;;13.20;11.97;;;;;;;;;;5093663;28;20530;-66
2022/01/24 12:20:32;;;;;;;14.27;12.97;;;;;;;;;;5093495;28;20406;-66
2022/01/24 12:22:58;;;;;;;12.47;11.47;;;;;;;;;;5093789;28;20414;-66
2022/01/24 12:25:43;;;;;;;12.70;11.50;;;;;;;;;;5094032;28;20395;-66
2022/01/24 12:28:16;;;;;;;13.43;12.13;;;;;;;;;;5093421;28;20782;-66
2022/01/24 12:30:58;;;;;;;14.17;12.90;;;;;;;;;;5093456;28;20914;-66
2022/01/24 12:33:31;;;;;;;13.80;12.47;;;;;;;;;;5093284;28;20464;-66
2022/01/24 12:35:57;;;;;;;14.77;13.50;;;;;;;;;;5093233;28;20462;-66
2022/01/24 12:38:23;;;;;;;14.53;12.40;;;;;;;;;;5093230;28;20987;-65
2022/01/24 12:40:49;;;;;;;14.20;12.90;;;;;;;;;;5093197;28;20397;-67
2022/01/24 12:43:29;;;;;;;12.37;11.37;;;;;;;;;;5093465;28;20401;-67
2022/01/24 12:46:40;;;;;;;13.97;12.13;;;;;;;;;;5097392;28;20398;-66
2022/01/24 12:48:41;;;;;;;12.70;11.47;;;;;;;;;;5089824;28;20444;-67
2022/01/24 12:51:07;;;;;;;12.83;11.83;;;;;;;;;;5097264;28;20884;-67
2022/01/24 12:53:38;;;;;;;13.50;12.30;;;;;;;;;;5097211;28;20412;-67
2022/01/24 12:56:07;;;;;;;14.77;13.10;;;;;;;;;;5096049;28;20419;-67
2022/01/24 12:58:37;;;;;;;12.60;11.57;;;;;;;;;;5096144;28;20818;-66
2022/01/24 13:01:22;;;;;;;12.90;11.80;;;;;;;;;;5097379;28;20802;-66
2022/01/24 13:03:49;;;;;;;12.70;11.40;;;;;;;;;;5096925;28;20968;-66
2022/01/24 13:06:16;;;;;;;13.90;12.60;;;;;;;;;;5095728;28;20796;-65
2022/01/24 13:08:54;;;;;;;12.03;11.03;;;;;;;;;;5096938;28;20445;-66
2022/01/24 13:11:21;;;;;;;13.10;12.00;;;;;;;;;;5097132;28;20833;-65
2022/01/24 13:14:15;;;;;;;14.03;12.53;;;;;;;;;;5096094;28;20397;-65
2022/01/24 13:22:26;;;;;;;17.73;12.37;;;;;;;;;;5096923;28;21038;-64
2022/01/24 13:25:23;;;;;;;15.60;13.90;;;;;;;;;;5095328;28;20416;-65
2022/01/24 13:27:50;;;;;;;14.80;13.20;;;;;;;;;;5084664;28;20788;-64
2022/01/24 13:30:22;;;;;;;14.50;13.10;;;;;;;;;;5096519;28;20402;-64
2022/01/24 13:32:50;;;;;;;14.00;12.63;;;;;;;;;;5096746;28;20438;-65
2022/01/24 13:35:17;;;;;;;13.53;12.30;;;;;;;;;;5096505;28;20393;-64
2022/01/24 13:37:43;;;;;;;14.50;13.00;;;;;;;;;;5096433;28;20464;-64
2022/01/24 13:40:10;;;;;;;13.10;11.93;;;;;;;;;;5096348;28;20401;-65
2022/01/24 13:42:36;;;;;;;14.27;12.80;;;;;;;;;;5096292;28;20409;-65
2022/01/24 13:45:03;;;;;;;15.13;13.10;;;;;;;;;;5096173;28;20899;-64
2022/01/24 13:47:29;;;;;;;14.47;12.97;;;;;;;;;;5096158;28;20452;-65
2022/01/24 13:49:55;;;;;;;17.03;13.53;;;;;;;;;;5096042;28;20405;-65
2022/01/24 13:52:22;;;;;;;13.70;12.43;;;;;;;;;;5096001;28;20501;-65
2022/01/24 13:54:48;;;;;;;15.80;13.53;;;;;;;;;;5095578;28;20903;-65
2022/01/24 13:57:18;;;;;;;18.47;12.50;;;;;;;;;;5096226;28;20469;-65
2022/01/24 13:59:44;;;;;;;14.30;12.70;;;;;;;;;;5096223;28;20764;-64
2022/01/24 14:02:13;;;;;;;12.67;11.37;;;;;;;;;;5095675;28;20409;-65
2022/01/24 14:04:41;;;;;;;12.97;11.63;;;;;;;;;;5095843;28;20480;-65
2022/01/24 14:07:14;;;;;;;14.30;12.90;;;;;;;;;;5095745;28;20405;-65
2022/01/24 14:09:52;;;;;;;12.23;10.97;;;;;;;;;;5095767;28;20812;-65
2022/01/24 14:12:20;;;;;;;14.53;11.50;;;;;;;;;;5095952;28;20455;-64
2022/01/24 14:14:51;;;;;;;11.73;10.63;;;;;;;;;;5095625;28;20755;-65
2022/01/24 14:17:29;;;;;;;13.20;11.57;;;;;;;;;;5095312;28;20487;-65
2022/01/24 14:19:59;;;;;;;12.40;11.20;;;;;;;;;;5095561;28;20401;-65
2022/01/24 14:22:38;;;;;;;13.13;11.83;;;;;;;;;;5095834;28;20397;-66
2022/01/24 14:25:04;;;;;;;12.90;11.43;;;;;;;;;;5095496;28;20772;-65
2022/01/24 14:27:37;;;;;;;13.67;12.00;;;;;;;;;;5095507;28;20448;-64
2022/01/24 14:30:11;;;;;;;13.10;11.47;;;;;;;;;;5095334;28;20409;-66
2022/01/24 14:32:44;;;;;;;14.20;12.00;;;;;;;;;;5095495;28;20416;-64
2022/01/24 14:35:10;;;;;;;12.50;11.20;;;;;;;;;;5095407;28;20482;-65
2022/01/24 14:37:47;;;;;;;11.87;9.60;;;;;;;;;;5095189;28;20469;-64
2022/01/24 14:40:31;;;;;;;10.83;9.73;;;;;;;;;;5095288;28;20425;-64
2022/01/24 14:44:53;;;;;;;12.90;11.00;;;;;;;;;;5095081;28;20389;-65
2022/01/24 14:45:43;;;;;;;12.53;11.00;;;;;;;;;;5094843;28;20523;-64
2022/01/24 14:48:09;;;;;;;11.97;10.63;;;;;;;;;;5095151;28;20431;-64
2022/01/24 14:50:36;;;;;;;15.50;11.10;;;;;;;;;;5095035;28;20834;-64
2022/01/24 14:53:05;;;;;;;12.73;11.20;;;;;;;;;;5094928;28;20825;-64
2022/01/24 14:55:31;;;;;;;14.00;10.97;;;;;;;;;;5094930;28;20401;-64
2022/01/24 14:57:57;;;;;;;12.17;10.60;;;;;;;;;;5094834;28;20464;-65
2022/01/24 15:00:23;;;;;;;12.77;11.47;;;;;;;;;;5094886;28;20398;-65
2022/01/24 15:02:50;;;;;;;13.20;11.70;;;;;;;;;;5094777;28;20420;-64
2022/01/24 15:05:16;;;;;;;16.40;12.07;;;;;;;;;;5094744;28;20403;-64
2022/01/24 15:07:43;;;;;;;14.07;12.57;;;;;;;;;;5093701;28;20441;-64
2022/01/24 15:10:09;;;;;;;18.33;10.87;;;;;;;;;;5094581;28;20409;-64
2022/01/24 15:12:42;;;;;;;14.33;12.00;;;;;;;;;;5094811;28;20433;-64
2022/01/24 15:15:09;;;;;;;14.97;12.20;;;;;;;;;;5093165;28;20464;-64
2022/01/24 15:25:49;;;;;;;17.30;11.10;;;;;;;;;;5094473;28;20423;-64
2022/01/24 15:28:17;;;;;;;12.70;11.40;;;;;;;;;;5094267;28;20880;-64
2022/01/24 15:30:43;;;;;;;10.90;9.87;;;;;;;;;;5092941;28;20451;-64
2022/01/24 15:33:09;;;;;;;12.23;10.90;;;;;;;;;;5094173;28;20416;-65
2022/01/24 15:35:36;;;;;;;11.20;10.20;;;;;;;;;;5094175;28;20405;-64
2022/01/24 15:38:04;;;;;;;10.43;9.50;;;;;;;;;;5094056;28;20488;-65
2022/01/24 15:40:31;;;;;;;12.87;11.50;;;;;;;;;;5094079;28;20398;-65
2022/01/24 15:43:03;;;;;;;16.57;12.63;;;;;;;;;;5094282;28;20530;-64
2022/01/24 15:45:36;;;;;;;13.40;10.60;;;;;;;;;;5093962;28;20372;-64
2022/01/24 15:48:03;;;;;;;13.33;11.43;;;;;;;;;;5094198;28;20454;-64
2022/01/24 15:50:30;;;;;;;13.77;12.10;;;;;;;;;;5093919;28;20405;-65
2022/01/24 15:52:58;;;;;;;12.50;11.20;;;;;;;;;;5093929;28;20401;-64
2022/01/24 15:55:27;;;;;;;13.03;10.90;;;;;;;;;;5093905;28;20394;-65
2022/01/24 15:57:54;;;;;;;11.63;10.43;;;;;;;;;;5093687;28;20495;-65
2022/01/24 16:00:27;;;;;;;15.93;12.30;;;;;;;;;;5093900;28;20401;-65
2022/01/24 16:02:55;;;;;;;15.00;12.33;;;;;;;;;;5093978;28;20413;-64
2022/01/24 16:05:21;;;;;;;21.70;14.30;;;;;;;;;;5093691;28;20424;-64
2022/01/24 16:07:48;;;;;;;15.63;11.33;;;;;;;;;;5093725;28;20413;-64
2022/01/24 16:10:17;;;;;;;14.07;12.17;;;;;;;;;;5093661;28;20556;-65
2022/01/24 16:12:45;;;;;;;15.33;12.50;;;;;;;;;;5093604;28;20877;-65
2022/01/24 16:15:12;;;;;;;13.90;12.10;;;;;;;;;;5093406;28;20393;-65
2022/01/24 16:17:38;;;;;;;24.27;14.20;;;;;;;;;;5093126;28;20492;-66
2022/01/24 16:20:12;;;;;;;16.57;14.00;;;;;;;;;;5093428;28;20390;-65
2022/01/24 16:25:38;;;;;;;16.98;13.77;;;;;;;;;;5092829;28;20399;-64
2022/01/24 16:28:08;;;;;;;19.20;13.90;;;;;;;;;;5093380;28;20205;-63
2022/01/24 16:30:42;;;;;;;20.07;15.33;;;;;;;;;;5093347;28;20538;-63
2022/01/24 16:33:08;;;;;;;17.13;12.70;;;;;;;;;;5093121;28;20874;-62